createdAt,value
2018-01-16T00:19:22.467Z,87.76
2018-01-16T00:39:56.809Z,87.73
2018-01-16T01:00:33.005Z,86.51
2018-01-16T01:21:08.277Z,84.83
2018-01-16T01:41:45.714Z,86.73
2018-01-16T02:02:20.658Z,86.07
2018-01-16T02:22:55.015Z,85.38
2018-01-16T02:43:27.481Z,86.45
2018-01-16T03:04:01.252Z,86.74
2018-01-16T03:24:37.139Z,87.83
2018-01-16T03:45:12.718Z,88.01
2018-01-16T04:05:45.840Z,89.35
2018-01-16T04:26:21.110Z,90.84
2018-01-16T04:46:54.537Z,91.66
2018-01-16T05:07:29.805Z,91.06
2018-01-16T05:28:03.856Z,89.71
2018-01-16T05:48:37.537Z,89.54
2018-01-16T06:09:11.318Z,89.03
2018-01-16T06:29:47.831Z,89.93
2018-01-16T06:50:21.033Z,88.28
2018-01-16T07:10:56.264Z,86.78
2018-01-16T07:31:30.258Z,87.68
2018-01-16T07:52:06.447Z,86.72
2018-01-16T08:12:40.796Z,87.71
2018-01-16T08:33:12.994Z,86.72
2018-01-16T08:53:51.924Z,89.11
2018-01-16T08:56:20.319Z,90.59
2018-01-16T08:58:48.601Z,89.26
2018-01-16T09:01:16.861Z,89.25
2018-01-16T09:03:45.120Z,89.48
2018-01-16T09:06:13.411Z,89.82
2018-01-16T09:08:41.687Z,88.38
2018-01-16T09:11:09.966Z,87.29
2018-01-16T09:13:38.236Z,86.78
2018-01-16T09:16:06.541Z,87.17
2018-01-16T09:18:35.224Z,87.40
2018-01-16T09:21:03.915Z,88.12
2018-01-16T09:23:32.206Z,86.76
2018-01-16T09:26:00.470Z,87.56
2018-01-16T09:28:28.732Z,87.30
2018-01-16T09:30:57.518Z,86.97
2018-01-16T09:33:25.798Z,87.78
2018-01-16T09:35:54.497Z,87.75
2018-01-16T09:38:23.196Z,86.64
2018-01-16T09:40:51.865Z,86.85
2018-01-16T09:43:20.525Z,87.23
2018-01-16T09:45:48.858Z,86.24
2018-01-16T09:48:17.157Z,85.21
2018-01-16T09:50:45.449Z,85.36
2018-01-16T09:53:14.486Z,86.75
2018-01-16T09:55:42.757Z,86.89
2018-01-16T09:58:11.157Z,85.44
2018-01-16T10:00:39.413Z,85.35
2018-01-16T10:03:07.714Z,85.16
2018-01-16T10:05:35.980Z,86.84
2018-01-16T10:08:04.261Z,86.23
2018-01-16T10:10:32.516Z,84.78
2018-01-16T10:13:00.783Z,85.10
2018-01-16T10:15:29.070Z,84.69
2018-01-16T10:17:57.348Z,84.36
2018-01-16T10:20:25.635Z,86.75
2018-01-16T10:22:53.907Z,86.09
2018-01-16T10:25:22.155Z,85.86
2018-01-16T10:27:51.275Z,86.19
2018-01-16T10:30:19.531Z,84.48
2018-01-16T10:32:48.574Z,84.96
2018-01-16T10:35:16.851Z,84.42
2018-01-16T10:37:45.135Z,84.87
2018-01-16T10:40:13.404Z,84.88
2018-01-16T10:42:41.675Z,84.93
2018-01-16T10:45:09.930Z,81.29
2018-01-16T10:47:38.200Z,81.91
2018-01-16T10:50:07.258Z,82.41
2018-01-16T10:52:35.543Z,84.92
2018-01-16T10:55:03.814Z,84.59
2018-01-16T10:57:32.109Z,83.08
2018-01-16T11:00:00.380Z,83.54
2018-01-16T11:02:28.672Z,82.43
2018-01-16T11:04:56.945Z,82.11
2018-01-16T11:07:25.209Z,82.60
2018-01-16T11:09:53.512Z,82.97
2018-01-16T11:12:21.771Z,83.12
2018-01-16T11:14:50.062Z,81.99
2018-01-16T11:17:19.103Z,83.31
2018-01-16T11:19:47.383Z,81.70
2018-01-16T11:22:15.680Z,81.44
2018-01-16T11:24:43.939Z,80.03
2018-01-16T11:27:12.244Z,82.17
2018-01-16T11:29:40.510Z,80.33
2018-01-16T11:32:08.781Z,80.52
2018-01-16T11:34:37.048Z,79.06
2018-01-16T11:37:05.337Z,80.45
2018-01-16T11:39:33.655Z,79.30
2018-01-16T11:42:01.980Z,79.74
2018-01-16T11:44:30.245Z,79.56
2018-01-16T11:46:58.522Z,79.58
2018-01-16T11:49:26.795Z,78.89
2018-01-16T11:51:56.140Z,78.48
2018-01-16T11:54:24.395Z,79.77
2018-01-16T11:56:52.671Z,78.50
2018-01-16T11:59:20.952Z,78.44
2018-01-16T12:01:49.205Z,78.61
2018-01-16T12:04:17.526Z,77.19
2018-01-16T12:06:45.800Z,79.31
2018-01-16T12:09:14.057Z,78.94
2018-01-16T12:11:43.128Z,77.94
2018-01-16T12:14:12.145Z,77.37
2018-01-16T12:16:40.417Z,75.70
2018-01-16T12:19:08.671Z,76.86
2018-01-16T12:21:37.719Z,77.75
2018-01-16T12:24:05.991Z,77.55
2018-01-16T12:26:34.276Z,76.54
2018-01-16T12:29:02.834Z,76.35
2018-01-16T12:31:31.136Z,74.37
2018-01-16T12:33:59.394Z,74.84
2018-01-16T12:36:27.715Z,74.89
2018-01-16T12:38:56.002Z,75.96
2018-01-16T12:41:24.547Z,73.77
2018-01-16T12:43:52.827Z,72.54
2018-01-16T12:46:21.128Z,74.04
2018-01-16T12:48:49.416Z,72.75
2018-01-16T12:51:17.720Z,73.60
2018-01-16T12:53:46.772Z,72.51
2018-01-16T12:56:15.023Z,73.53
2018-01-16T12:58:43.308Z,74.33
2018-01-16T13:01:11.583Z,74.34
2018-01-16T13:03:39.852Z,73.29
2018-01-16T13:06:08.140Z,73.65
2018-01-16T13:08:36.405Z,74.43
2018-01-16T13:11:04.692Z,72.83
2018-01-16T13:13:33.827Z,74.91
2018-01-16T13:16:02.151Z,74.08
2018-01-16T13:18:30.435Z,74.76
2018-01-16T13:20:58.691Z,74.34
2018-01-16T13:26:36.795Z,73.88
2018-01-16T13:29:05.079Z,72.90
2018-01-16T13:31:33.636Z,73.24
2018-01-16T13:34:01.946Z,73.61
2018-01-16T13:36:30.605Z,73.04
2018-01-16T13:38:58.911Z,74.07
2018-01-16T13:41:27.156Z,74.44
2018-01-16T13:43:55.452Z,75.40
2018-01-16T13:46:23.726Z,74.76
2018-01-16T13:48:51.996Z,74.67
2018-01-16T13:51:20.280Z,75.33
2018-01-16T13:53:48.559Z,75.84
2018-01-16T13:56:16.865Z,75.69
2018-01-16T13:58:45.254Z,76.14
2018-01-16T14:01:13.497Z,76.26
2018-01-16T14:03:42.193Z,76.06
2018-01-16T14:06:10.868Z,76.49
2018-01-16T14:08:39.177Z,75.35
2018-01-16T14:11:07.461Z,76.12
2018-01-16T14:13:35.718Z,76.20
2018-01-16T14:16:04.384Z,76.06
2018-01-16T14:18:32.684Z,75.31
2018-01-16T14:21:01.772Z,75.68
2018-01-16T14:23:30.036Z,77.47
2018-01-16T14:25:58.324Z,76.89
2018-01-16T14:28:27.368Z,76.77
2018-01-16T14:30:55.643Z,76.45
2018-01-16T14:33:24.670Z,77.13
2018-01-16T14:35:52.976Z,77.14
2018-01-16T14:38:21.619Z,77.15
2018-01-16T14:40:50.345Z,78.15
2018-01-16T14:43:19.036Z,77.89
2018-01-16T14:45:47.304Z,77.97
2018-01-16T14:48:16.088Z,78.18
2018-01-16T14:50:44.365Z,76.34
2018-01-16T14:53:12.621Z,76.42
2018-01-16T14:55:40.925Z,76.16
2018-01-16T14:58:09.629Z,76.16
2018-01-16T15:00:38.324Z,76.41
2018-01-16T15:03:06.605Z,76.75
2018-01-16T15:05:34.920Z,76.60
2018-01-16T15:08:03.197Z,76.60
2018-01-16T15:10:32.284Z,77.08
2018-01-16T15:13:03.533Z,77.60
2018-01-16T15:15:33.804Z,78.26
2018-01-16T15:18:02.177Z,78.10
2018-01-16T15:20:30.563Z,78.16
2018-01-16T15:22:58.950Z,78.98
2018-01-16T15:25:27.732Z,78.94
2018-01-16T15:27:56.033Z,78.01
2018-01-16T15:30:24.366Z,77.36
2018-01-16T15:32:52.801Z,77.36
2018-01-16T15:35:21.144Z,75.64
2018-01-16T15:37:49.540Z,75.10
2018-01-16T15:40:17.938Z,75.31
2018-01-16T15:42:47.207Z,75.65
2018-01-16T15:45:15.601Z,76.44
2018-01-16T15:47:43.980Z,76.29
2018-01-16T15:50:12.357Z,74.27
2018-01-16T15:52:40.752Z,74.75
2018-01-16T15:55:09.092Z,73.26
2018-01-16T15:57:37.500Z,73.83
2018-01-16T16:00:05.854Z,73.60
2018-01-16T16:02:34.261Z,73.31
2018-01-16T16:05:06.008Z,73.05
2018-01-16T16:07:34.424Z,73.81
2018-01-16T16:10:04.600Z,73.68
2018-01-16T16:12:33.001Z,74.44
2018-01-16T16:15:01.410Z,74.31
2018-01-16T16:17:29.807Z,73.54
2018-01-16T16:19:59.092Z,73.16
2018-01-16T16:22:27.419Z,74.14
2018-01-16T16:24:55.798Z,73.49
2018-01-16T16:27:26.061Z,73.42
2018-01-16T16:29:54.420Z,73.00
2018-01-16T16:32:22.800Z,72.10
2018-01-16T16:34:51.241Z,72.64
2018-01-16T16:37:20.464Z,73.14
2018-01-16T16:39:48.873Z,72.92
2018-01-16T16:42:17.252Z,71.64
2018-01-16T16:44:47.504Z,72.40
2018-01-16T16:47:16.768Z,72.85
2018-01-16T16:49:45.150Z,72.28
2018-01-16T16:52:13.869Z,72.19
2018-01-16T16:54:42.214Z,72.81
2018-01-16T16:57:10.637Z,72.56
2018-01-16T16:59:39.940Z,73.27
2018-01-16T17:02:09.231Z,72.81
2018-01-16T17:04:39.429Z,72.54
2018-01-16T17:07:07.816Z,73.25
2018-01-16T17:09:36.217Z,73.22
2018-01-16T17:12:04.685Z,73.15
2018-01-16T17:14:33.000Z,74.09
2018-01-16T17:17:02.324Z,74.21
2018-01-16T17:19:30.700Z,73.67
2018-01-16T17:22:01.170Z,74.07
2018-01-16T17:24:31.513Z,74.40
2018-01-16T17:27:00.987Z,73.79
2018-01-16T17:29:33.088Z,73.87
2018-01-16T17:32:01.463Z,73.63
2018-01-16T17:34:29.947Z,74.39
2018-01-16T17:36:58.292Z,75.03
2018-01-16T17:39:26.622Z,74.97
2018-01-16T17:41:55.978Z,75.36
2018-01-16T17:44:26.464Z,76.40
2018-01-16T17:46:55.726Z,75.74
2018-01-16T17:49:24.123Z,75.99
2018-01-16T17:51:52.494Z,76.55
2018-01-16T17:54:20.842Z,76.38
2018-01-16T17:56:49.266Z,76.92
2018-01-16T17:59:17.604Z,75.71
2018-01-16T18:01:45.859Z,76.42
2018-01-16T18:04:14.180Z,76.10
2018-01-16T18:06:42.449Z,76.53
2018-01-16T18:09:10.760Z,75.68
2018-01-16T18:14:36.268Z,76.34
2018-01-16T18:17:04.574Z,75.90
2018-01-16T18:19:32.837Z,75.68
2018-01-16T18:22:01.115Z,77.21
2018-01-16T18:27:26.267Z,76.98
2018-01-16T18:29:55.333Z,76.85
2018-01-16T18:32:23.613Z,77.07
2018-01-16T18:34:51.933Z,76.19
2018-01-16T18:37:20.211Z,76.52
2018-01-16T18:39:48.506Z,77.68
2018-01-16T18:42:16.948Z,77.85
2018-01-16T18:44:45.268Z,78.03
2018-01-16T18:47:13.556Z,78.89
2018-01-16T18:49:41.913Z,78.70
2018-01-16T18:52:10.219Z,78.60
2018-01-16T18:54:38.513Z,78.46
2018-01-16T18:57:07.494Z,77.93
2018-01-16T18:59:35.788Z,78.07
2018-01-16T19:02:04.112Z,78.15
2018-01-16T19:04:36.539Z,78.27
2018-01-16T19:07:04.853Z,77.73
2018-01-16T19:09:33.242Z,77.59
2018-01-16T19:12:02.266Z,77.49
2018-01-16T19:14:30.585Z,77.37
2018-01-16T19:16:58.904Z,77.90
2018-01-16T19:19:27.249Z,77.27
2018-01-16T19:21:55.910Z,77.22
2018-01-16T19:24:24.281Z,77.34
2018-01-16T19:26:53.000Z,78.30
2018-01-16T19:29:21.536Z,78.02
2018-01-16T19:31:49.828Z,77.93
2018-01-16T19:34:18.879Z,78.18
2018-01-16T19:36:47.165Z,77.94
2018-01-16T19:39:16.243Z,78.01
2018-01-16T19:41:46.602Z,79.38
2018-01-16T19:44:14.885Z,77.38
2018-01-16T19:46:43.173Z,77.87
2018-01-16T19:49:11.474Z,77.42
2018-01-16T19:51:39.788Z,77.83
2018-01-16T19:54:08.858Z,77.51
2018-01-16T19:56:37.159Z,77.60
2018-01-16T19:59:05.675Z,77.09
2018-01-16T20:01:33.942Z,77.07
2018-01-16T20:04:03.167Z,77.41
2018-01-16T20:06:31.439Z,77.80
2018-01-16T20:08:59.762Z,78.18
2018-01-16T20:11:28.033Z,79.19
2018-01-16T20:13:56.312Z,78.34
2018-01-16T20:16:24.581Z,78.77
2018-01-16T20:18:52.963Z,78.92
2018-01-16T20:21:21.293Z,79.83
2018-01-16T20:23:49.571Z,79.32
2018-01-16T20:26:17.861Z,79.89
2018-01-16T20:28:47.029Z,79.70
2018-01-16T20:31:16.103Z,79.86
2018-01-16T20:33:44.387Z,79.29
2018-01-16T20:36:12.652Z,79.59
2018-01-16T20:38:40.944Z,80.48
2018-01-16T20:41:09.611Z,80.60
2018-01-16T20:43:38.376Z,80.95
2018-01-16T20:46:06.681Z,81.05
2018-01-16T20:48:35.348Z,80.98
2018-01-16T20:51:03.599Z,81.03
2018-01-16T20:53:31.897Z,81.60
2018-01-16T20:56:00.184Z,81.48
2018-01-16T20:58:28.471Z,81.70
2018-01-16T21:00:57.607Z,81.95
2018-01-16T21:03:26.654Z,82.22
2018-01-16T21:05:54.940Z,82.04
2018-01-16T21:08:23.196Z,82.25
2018-01-16T21:10:51.509Z,82.29
2018-01-16T21:13:19.801Z,82.18
2018-01-16T21:15:48.092Z,82.32
2018-01-16T21:18:16.389Z,82.42
2018-01-16T21:20:45.836Z,81.90
2018-01-16T21:23:14.146Z,81.74
2018-01-16T21:25:42.413Z,81.60
2018-01-16T21:28:10.677Z,81.69
2018-01-16T21:30:38.966Z,82.17
2018-01-16T21:33:07.270Z,82.97
2018-01-16T21:35:36.772Z,83.18
2018-01-16T21:38:05.803Z,82.70
2018-01-16T21:40:34.126Z,82.95
2018-01-16T21:43:02.442Z,82.94
2018-01-16T21:45:30.731Z,83.02
2018-01-16T21:47:59.035Z,83.20
2018-01-16T21:50:27.319Z,83.38
2018-01-16T21:52:55.590Z,83.89
2018-01-16T21:55:23.889Z,83.78
2018-01-16T21:57:52.144Z,83.89
2018-01-16T22:00:20.468Z,84.59
2018-01-16T22:02:48.782Z,84.34
2018-01-16T22:05:17.112Z,84.55
2018-01-16T22:07:45.398Z,84.57
2018-01-16T22:10:13.702Z,84.66
2018-01-16T22:12:42.033Z,84.88
2018-01-16T22:15:10.340Z,84.69
2018-01-16T22:17:39.814Z,84.82
2018-01-16T22:20:08.804Z,84.68
2018-01-16T22:22:37.101Z,84.84
2018-01-16T22:25:05.377Z,84.52
2018-01-16T22:27:33.673Z,85.04
2018-01-16T22:30:05.218Z,85.06
2018-01-16T22:32:33.507Z,85.97
2018-01-16T22:35:02.604Z,85.98
2018-01-16T22:37:30.918Z,85.83
2018-01-16T22:39:59.175Z,85.83
2018-01-16T22:42:27.931Z,85.75
2018-01-16T22:44:56.188Z,85.98
2018-01-16T22:47:24.461Z,87.09
2018-01-16T22:49:52.742Z,87.00
2018-01-16T22:52:21.004Z,87.62
2018-01-16T22:54:49.320Z,87.31
2018-01-16T22:57:17.577Z,87.33
2018-01-16T22:59:46.277Z,86.62
2018-01-16T23:02:14.571Z,87.50
2018-01-16T23:04:43.347Z,87.08
2018-01-16T23:07:11.677Z,87.33
2018-01-16T23:09:39.946Z,87.00
2018-01-16T23:12:08.993Z,87.28
2018-01-16T23:14:38.060Z,86.73
2018-01-16T23:17:06.762Z,86.43
2018-01-16T23:19:35.035Z,86.94
2018-01-16T23:22:03.316Z,87.42
2018-01-16T23:24:31.609Z,88.72
2018-01-16T23:26:59.924Z,89.51
2018-01-16T23:29:28.944Z,89.13
2018-01-16T23:31:57.230Z,88.26
2018-01-16T23:34:25.511Z,88.41
2018-01-16T23:36:53.767Z,87.69
2018-01-16T23:39:22.047Z,87.10
2018-01-16T23:41:50.350Z,86.95
2018-01-16T23:44:18.669Z,86.80
2018-01-16T23:46:46.964Z,86.83
2018-01-16T23:49:15.995Z,87.14
2018-01-16T23:51:44.282Z,87.75
2018-01-16T23:54:12.616Z,87.82
2018-01-16T23:56:41.264Z,87.83
2018-01-16T23:59:09.791Z,88.18
